Time;durP1;ratioP1;P1;durP2;ratioP2;P2;SDS_P1;SDS_P2;PMS_P1;PMS_P2;Temp;Humidity;BMP_temperature;BMP_pressure;BME280_temperature;BME280_humidity;BME280_pressure;Samples;Min_cycle;Max_cycle;Signal;HPM_P1;HPM_P2
2022/11/19 00:02:16;;;;;;;7.50;4.70;;;2.40;99.90;;;;;;4797044;29;20402;-86
2022/11/19 00:04:42;;;;;;;7.30;5.40;;;2.60;99.90;;;;;;4798110;29;20134;-86
2022/11/19 00:07:08;;;;;;;6.60;4.82;;;0.20;99.90;;;;;;4780794;29;20169;-86
2022/11/19 00:09:36;;;;;;;7.53;4.93;;;0.40;99.90;;;;;;4781956;29;20058;-86
2022/11/19 00:14:46;;;;;;;7.50;4.22;;;0.40;99.90;;;;;;4785144;29;20047;-86
2022/11/19 00:17:17;;;;;;;5.90;4.20;;;0.80;99.90;;;;;;4780444;29;20059;-87
2022/11/19 00:19:46;;;;;;;6.65;4.50;;;2.00;99.90;;;;;;4768474;29;20067;-86
2022/11/19 00:22:12;;;;;;;5.72;3.75;;;0.20;99.90;;;;;;4798361;29;20459;-87
2022/11/19 00:24:38;;;;;;;5.20;3.72;;;1.80;99.90;;;;;;4772292;29;20047;-87
2022/11/19 00:27:10;;;;;;;6.28;3.83;;;3.60;99.90;;;;;;4781494;29;20116;-88
2022/11/19 00:29:38;;;;;;;5.78;4.10;;;1.70;99.90;;;;;;4798697;29;20115;-87
2022/11/19 00:32:04;;;;;;;5.95;3.80;;;1.60;99.90;;;;;;4782704;29;20063;-86
2022/11/19 00:34:30;;;;;;;4.78;3.50;;;1.70;99.90;;;;;;4767630;29;20101;-87
2022/11/19 00:37:01;;;;;;;5.60;3.60;;;3.30;99.90;;;;;;4787174;29;20050;-87
2022/11/19 00:39:29;;;;;;;5.18;3.63;;;1.50;99.90;;;;;;4797641;29;20055;-87
2022/11/19 00:42:01;;;;;;;5.72;3.53;;;2.10;99.90;;;;;;4811005;29;20497;-88
2022/11/19 00:44:32;;;;;;;5.07;3.38;;;2.00;99.90;;;;;;4795885;29;20051;-87
2022/11/19 00:46:57;;;;;;;5.32;3.55;;;1.20;99.90;;;;;;4784221;29;20055;-86
2022/11/19 00:49:23;;;;;;;6.88;3.92;;;1.30;99.90;;;;;;4784268;29;20250;-87
2022/11/19 00:51:49;;;;;;;4.78;3.30;;;;;;;;;;4782818;29;20137;-86
2022/11/19 00:54:15;;;;;;;5.15;3.40;;;1.60;99.90;;;;;;4781089;29;20086;-85
2022/11/19 00:56:44;;;;;;;4.40;2.97;;;1.50;99.90;;;;;;4770298;29;20147;-87
2022/11/19 00:59:09;;;;;;;4.70;3.20;;;3.30;99.90;;;;;;4798958;29;20077;-87
2022/11/19 01:01:35;;;;;;;4.97;3.22;;;3.50;99.90;;;;;;4782286;29;20058;-86
2022/11/19 01:04:01;;;;;;;4.20;2.85;;;2.20;99.90;;;;;;4801386;29;20163;-87
2022/11/19 01:06:27;;;;;;;4.50;3.10;;;0.50;99.90;;;;;;4800015;29;20122;-86
2022/11/19 01:08:53;;;;;;;4.43;2.95;;;;;;;;;;4781759;29;20130;-86
2022/11/19 01:11:28;;;;;;;5.63;3.30;;;1.60;99.90;;;;;;4800220;29;20042;-86
2022/11/19 01:13:55;;;;;;;4.57;3.20;;;4.60;99.90;;;;;;4798636;29;20141;-86
2022/11/19 01:16:30;;;;;;;4.22;2.72;;;2.00;99.90;;;;;;4799552;29;20054;-88
2022/11/19 01:18:56;;;;;;;4.57;2.80;;;3.60;99.90;;;;;;4799955;29;20410;-87
2022/11/19 01:21:24;;;;;;;5.35;2.78;;;3.20;99.90;;;;;;4797515;29;20062;-87
2022/11/19 01:23:51;;;;;;;3.55;2.42;;;1.60;99.90;;;;;;4797405;29;20495;-87
2022/11/19 01:26:17;;;;;;;4.32;2.15;;;3.70;99.90;;;;;;4783783;29;20043;-87
2022/11/19 01:28:51;;;;;;;3.75;2.50;;;1.50;99.90;;;;;;4798095;29;20180;-86
2022/11/19 01:31:21;;;;;;;4.13;2.65;;;-0.40;99.90;;;;;;4813721;29;20093;-87
2022/11/19 01:33:49;;;;;;;3.67;2.33;;;1.50;99.90;;;;;;4784574;29;20306;-87
2022/11/19 01:36:21;;;;;;;3.50;2.40;;;3.80;99.90;;;;;;4798676;29;20043;-87
2022/11/19 01:38:50;;;;;;;3.92;2.67;;;1.70;99.90;;;;;;4777426;29;20115;-89
2022/11/19 01:41:22;;;;;;;3.05;2.28;;;1.80;99.90;;;;;;4794728;29;20550;-86
2022/11/19 01:43:57;;;;;;;4.32;2.45;;;1.70;99.90;;;;;;4797528;29;20061;-87
2022/11/19 01:46:26;;;;;;;3.58;2.28;;;1.80;99.90;;;;;;4796937;29;20185;-87
2022/11/19 01:49:11;;;;;;;4.13;2.38;;;1.80;99.90;;;;;;4779461;29;20062;-86
2022/11/19 01:51:44;;;;;;;3.58;2.30;;;1.60;99.90;;;;;;4779844;29;20057;-86
2022/11/19 01:54:19;;;;;;;3.88;2.58;;;1.70;99.90;;;;;;4799740;29;20078;-87
2022/11/19 01:56:53;;;;;;;4.68;2.90;;;3.50;99.90;;;;;;4779573;29;20200;-87
2022/11/19 01:59:20;;;;;;;7.85;2.83;;;1.70;99.90;;;;;;4796732;29;20070;-85
2022/11/19 02:01:46;;;;;;;4.32;2.88;;;1.30;99.90;;;;;;4768998;29;20053;-88
2022/11/19 02:04:14;;;;;;;3.65;2.72;;;1.80;99.90;;;;;;4781841;29;20058;-87
2022/11/19 02:06:41;;;;;;;4.05;2.63;;;1.90;99.90;;;;;;4797757;29;20059;-85
2022/11/19 02:09:07;;;;;;;4.13;2.55;;;1.70;99.90;;;;;;4799409;29;20055;-86
2022/11/19 02:11:45;;;;;;;3.63;2.40;;;1.50;99.90;;;;;;4781245;29;20398;-87
2022/11/19 02:14:46;;;;;;;4.13;2.65;;;1.60;99.90;;;;;;4782646;29;20054;-86
2022/11/19 02:17:49;;;;;;;4.50;2.55;;;0.30;99.90;;;;;;4797704;29;20161;-88
2022/11/19 02:20:42;;;;;;;3.80;2.42;;;1.50;99.90;;;;;;4793676;29;20051;-87
2022/11/19 02:23:36;;;;;;;3.75;2.53;;;1.60;99.90;;;;;;4780061;29;20051;-87
2022/11/19 02:26:30;;;;;;;3.53;2.20;;;1.60;99.90;;;;;;4795796;29;20086;-86
2022/11/19 02:29:13;;;;;;;4.97;2.92;;;1.60;99.90;;;;;;4796588;29;20930;-86
2022/11/19 02:32:03;;;;;;;4.93;2.70;;;1.50;99.90;;;;;;4779081;29;20106;-86
2022/11/19 02:34:50;;;;;;;3.65;2.47;;;1.40;99.90;;;;;;4793949;29;20047;-87
2022/11/19 02:37:37;;;;;;;3.83;2.50;;;1.50;99.90;;;;;;4784510;29;20095;-86
2022/11/19 02:40:25;;;;;;;3.88;2.42;;;1.30;99.90;;;;;;4811773;29;20626;-87
2022/11/19 02:42:56;;;;;;;4.80;2.97;;;1.70;99.90;;;;;;4798785;29;20150;-87
2022/11/19 02:45:39;;;;;;;5.05;2.95;;;1.20;99.90;;;;;;4782590;29;20501;-87
2022/11/19 02:48:26;;;;;;;4.05;2.58;;;1.30;99.90;;;;;;4782574;29;20992;-86
2022/11/19 02:50:56;;;;;;;3.63;2.72;;;1.50;99.90;;;;;;4817724;29;20150;-87
2022/11/19 02:53:25;;;;;;;4.25;2.70;;;2.90;99.90;;;;;;4802186;29;20978;-88
2022/11/19 03:04:30;;;;;;;4.10;2.60;;;1.20;99.90;;;;;;4801662;29;20133;-86
2022/11/19 03:07:09;;;;;;;3.45;2.55;;;2.90;99.90;;;;;;4802984;29;20075;-87
2022/11/19 03:09:41;;;;;;;5.75;2.70;;;-0.40;99.90;;;;;;4788093;29;20058;-87
2022/11/19 03:12:12;;;;;;;4.13;2.70;;;1.00;99.90;;;;;;4803940;29;20062;-87
2022/11/19 03:18:01;;;;;;;5.22;2.92;;;1.10;99.90;;;;;;4803789;29;20170;-86
2022/11/19 03:20:48;;;;;;;4.55;3.03;;;0.70;99.90;;;;;;4789274;29;20046;-86
2022/11/19 03:23:30;;;;;;;4.50;3.20;;;0.90;99.90;;;;;;4804559;29;20093;-87
2022/11/19 03:26:15;;;;;;;4.60;3.13;;;0.80;99.90;;;;;;4802130;29;20085;-88
2022/11/19 03:28:46;;;;;;;4.63;2.85;;;0.70;99.90;;;;;;4804129;29;20407;-87
2022/11/19 03:31:15;;;;;;;4.50;3.00;;;0.70;99.90;;;;;;4800478;29;20092;-86
2022/11/19 03:33:48;;;;;;;5.20;3.10;;;0.70;99.90;;;;;;4802828;29;20578;-86
2022/11/19 03:36:19;;;;;;;4.63;2.70;;;2.90;99.90;;;;;;4783787;29;20086;-86
2022/11/19 03:38:57;;;;;;;4.13;2.58;;;2.60;99.90;;;;;;4785910;29;20552;-87
2022/11/19 03:41:25;;;;;;;5.43;3.00;;;0.80;99.90;;;;;;4801275;29;20115;-88
2022/11/19 03:43:56;;;;;;;4.65;2.95;;;0.50;99.90;;;;;;4797307;29;20054;-87
2022/11/19 03:46:24;;;;;;;4.50;2.80;;;2.90;99.90;;;;;;4800250;29;20070;-88
2022/11/19 03:48:54;;;;;;;5.65;3.10;;;2.90;99.90;;;;;;4802032;29;20058;-88
2022/11/19 03:51:35;;;;;;;5.30;3.13;;;2.50;99.90;;;;;;4799111;29;20055;-88
2022/11/19 03:54:04;;;;;;;4.45;3.13;;;0.70;99.90;;;;;;4783045;29;20160;-87
2022/11/19 03:56:36;;;;;;;4.65;3.10;;;0.40;99.90;;;;;;4800997;29;20055;-88
2022/11/19 03:59:04;;;;;;;6.07;3.42;;;0.60;99.90;;;;;;4794007;29;20061;-85
2022/11/19 04:01:35;;;;;;;5.35;2.95;;;-0.80;99.90;;;;;;4786121;29;20053;-88
2022/11/19 04:06:48;;;;;;;5.35;3.15;;;0.60;99.90;;;;;;4799985;29;20149;-86
2022/11/19 04:09:14;;;;;;;5.30;3.53;;;2.20;99.90;;;;;;4796179;29;20623;-87
2022/11/19 04:11:42;;;;;;;5.05;2.92;;;0.20;99.90;;;;;;4786479;29;20086;-88
2022/11/19 04:14:11;;;;;;;4.07;2.75;;;1.80;99.90;;;;;;4799062;29;20089;-87
2022/11/19 04:16:37;;;;;;;5.07;3.30;;;0.40;99.90;;;;;;4781137;29;20138;-87
2022/11/19 04:19:03;;;;;;;4.90;3.20;;;0.70;99.90;;;;;;4785259;29;20066;-87
2022/11/19 04:21:29;;;;;;;6.40;3.08;;;0.50;99.90;;;;;;4780758;29;20061;-86
2022/11/19 04:24:02;;;;;;;4.97;3.10;;;1.80;99.90;;;;;;4786853;29;20053;-87
2022/11/19 04:26:31;;;;;;;4.97;3.05;;;;;;;;;;4770595;29;20502;-86
2022/11/19 04:28:57;;;;;;;5.00;3.28;;;0.00;99.90;;;;;;4790742;29;20142;-88
2022/11/19 04:31:23;;;;;;;5.32;2.95;;;0.10;99.90;;;;;;4788617;29;20141;-87
2022/11/19 04:33:52;;;;;;;5.35;3.50;;;1.80;99.90;;;;;;4775658;29;20058;-87
2022/11/19 04:36:21;;;;;;;5.53;3.30;;;-0.10;99.90;;;;;;4805216;29;20051;-86
2022/11/19 04:38:47;;;;;;;4.45;2.90;;;-1.80;99.90;;;;;;4824303;29;20165;-88
2022/11/19 04:41:13;;;;;;;4.95;3.63;;;1.50;99.90;;;;;;4781596;29;20070;-87
2022/11/19 04:43:39;;;;;;;5.95;3.08;;;2.30;99.90;;;;;;4794167;29;20050;-86
2022/11/19 04:46:05;;;;;;;5.55;3.22;;;-0.30;99.90;;;;;;4808099;29;20092;-88
2022/11/19 04:48:33;;;;;;;6.22;3.63;;;2.00;99.90;;;;;;4787639;29;20056;-86
2022/11/19 04:50:59;;;;;;;5.40;3.35;;;0.20;99.90;;;;;;4790830;29;20078;-88
2022/11/19 04:53:25;;;;;;;4.38;3.03;;;0.00;99.90;;;;;;4802222;29;20496;-87
2022/11/19 04:55:56;;;;;;;5.00;3.30;;;1.00;99.90;;;;;;4801817;29;20107;-88
2022/11/19 04:58:22;;;;;;;5.65;3.35;;;1.90;99.90;;;;;;4801793;29;20118;-88
2022/11/19 05:00:48;;;;;;;5.63;3.83;;;1.20;99.90;;;;;;4786395;29;20054;-88
2022/11/19 05:03:16;;;;;;;6.82;3.58;;;0.50;99.90;;;;;;4787885;29;20060;-87
2022/11/19 05:05:45;;;;;;;5.00;3.22;;;1.20;99.90;;;;;;4799863;29;20062;-89
2022/11/19 05:08:14;;;;;;;4.70;3.42;;;-0.30;99.90;;;;;;4793341;29;20058;-88
2022/11/19 05:10:40;;;;;;;4.97;3.30;;;-1.00;99.90;;;;;;4803262;29;20062;-86
2022/11/19 05:13:08;;;;;;;5.05;3.33;;;1.90;99.90;;;;;;4793929;29;20057;-86
2022/11/19 05:15:34;;;;;;;5.72;3.33;;;-0.30;99.90;;;;;;4806414;29;20414;-87
2022/11/19 05:18:00;;;;;;;5.07;3.60;;;-0.40;99.90;;;;;;4791552;29;20050;-87
2022/11/19 05:20:25;;;;;;;6.03;2.65;;;0.10;99.90;;;;;;4793613;29;20165;-87
2022/11/19 05:22:52;;;;;;;4.75;3.40;;;-0.40;99.90;;;;;;4789720;29;20060;-88
2022/11/19 05:25:18;;;;;;;5.78;3.30;;;-0.60;99.90;;;;;;4782564;29;20142;-88
2022/11/19 05:27:43;;;;;;;4.90;3.20;;;1.70;99.90;;;;;;4802928;29;20054;-87
2022/11/19 05:30:10;;;;;;;6.60;2.97;;;1.40;99.90;;;;;;4772982;29;20126;-88
2022/11/19 05:32:36;;;;;;;5.85;3.08;;;-0.10;99.90;;;;;;4788220;29;20053;-88
2022/11/19 05:35:06;;;;;;;5.28;3.53;;;1.50;99.90;;;;;;4787988;29;20046;-87
2022/11/19 05:37:32;;;;;;;6.22;3.83;;;-0.70;99.90;;;;;;4785051;29;20496;-88
2022/11/19 05:40:07;;;;;;;5.45;3.45;;;1.60;99.90;;;;;;4789916;29;20070;-88
2022/11/19 05:42:33;;;;;;;5.65;3.33;;;-0.70;99.90;;;;;;4801750;29;20054;-87
2022/11/19 05:44:58;;;;;;;4.85;3.20;;;-0.50;99.90;;;;;;4788261;29;20050;-87
2022/11/19 05:47:29;;;;;;;5.68;3.40;;;-0.70;99.90;;;;;;4801361;29;20074;-86
2022/11/19 05:50:00;;;;;;;6.57;3.65;;;-0.50;99.90;;;;;;4771629;29;20050;-88
2022/11/19 05:52:36;;;;;;;5.38;3.42;;;-0.30;99.90;;;;;;4786835;29;20059;-87
2022/11/19 05:55:05;;;;;;;4.95;3.20;;;-2.10;99.90;;;;;;4789802;29;20050;-89
2022/11/19 05:57:30;;;;;;;5.93;3.38;;;-0.80;99.90;;;;;;4785896;29;20056;-88
2022/11/19 05:59:56;;;;;;;4.75;3.20;;;-0.50;99.90;;;;;;4784493;29;20062;-87
2022/11/19 06:02:22;;;;;;;5.22;3.63;;;-0.60;99.90;;;;;;4787007;29;20138;-86
2022/11/19 06:04:48;;;;;;;5.13;3.10;;;;;;;;;;4788854;29;20480;-88
2022/11/19 06:07:17;;;;;;;4.60;2.95;;;-0.90;99.90;;;;;;4786695;29;20162;-88
2022/11/19 06:09:45;;;;;;;6.00;3.40;;;-0.70;99.90;;;;;;4796049;29;20701;-88
2022/11/19 06:12:14;;;;;;;4.63;2.90;;;1.10;99.90;;;;;;4790738;29;20046;-87
2022/11/19 06:14:40;;;;;;;5.13;3.28;;;-0.90;99.90;;;;;;4804067;29;20058;-85
2022/11/19 06:17:09;;;;;;;5.40;3.10;;;-1.50;99.90;;;;;;4819962;29;20069;-87
2022/11/19 06:19:38;;;;;;;5.63;2.97;;;-0.80;99.90;;;;;;4792281;29;20138;-88
2022/11/19 06:22:04;;;;;;;5.60;2.92;;;1.10;99.90;;;;;;4801778;29;20050;-88
2022/11/19 06:24:32;;;;;;;5.80;3.60;;;-0.50;99.90;;;;;;4774058;29;20065;-88
2022/11/19 06:26:58;;;;;;;5.68;3.75;;;;;;;;;;4789249;29;20066;-89
2022/11/19 06:29:24;;;;;;;4.68;3.05;;;-1.00;99.90;;;;;;4802736;29;20207;-86
2022/11/19 06:31:50;;;;;;;4.80;3.20;;;-0.50;99.90;;;;;;4787969;29;20101;-86
2022/11/19 06:34:16;;;;;;;5.70;3.17;;;-0.30;99.90;;;;;;4804985;29;20051;-87
2022/11/19 06:36:42;;;;;;;5.28;3.20;;;1.00;99.90;;;;;;4804677;29;20136;-87
2022/11/19 06:39:08;;;;;;;4.90;3.17;;;-2.40;99.90;;;;;;4805075;29;20674;-87
2022/11/19 06:41:38;;;;;;;3.83;2.90;;;1.50;99.90;;;;;;4786423;29;20183;-88
2022/11/19 06:44:07;;;;;;;5.85;2.97;;;-1.10;99.90;;;;;;4802961;29;20082;-89
2022/11/19 06:46:33;;;;;;;4.90;3.17;;;-0.90;99.90;;;;;;4787429;29;20077;-88
2022/11/19 06:49:02;;;;;;;4.97;3.15;;;;;;;;;;4789550;29;20098;-88
2022/11/19 06:51:31;;;;;;;6.72;3.63;;;-1.10;99.90;;;;;;4803118;29;20062;-89
2022/11/19 06:53:57;;;;;;;5.70;3.15;;;-0.60;99.90;;;;;;4798889;29;20114;-87
2022/11/19 06:56:23;;;;;;;6.20;3.03;;;-2.00;99.90;;;;;;4801583;29;20058;-88
2022/11/19 06:58:48;;;;;;;5.40;3.38;;;-1.10;99.90;;;;;;4799896;29;20102;-89
2022/11/19 07:01:14;;;;;;;4.07;2.92;;;1.00;99.90;;;;;;4798481;29;20054;-90
2022/11/19 07:03:40;;;;;;;4.57;3.03;;;1.60;99.90;;;;;;4786244;29;20068;-89
2022/11/19 07:06:07;;;;;;;6.35;3.20;;;1.10;99.90;;;;;;4772596;29;20397;-87
2022/11/19 07:08:38;;;;;;;4.82;3.40;;;-2.80;99.90;;;;;;4787386;29;20548;-88
2022/11/19 07:11:24;;;;;;;4.50;3.17;;;;;;;;;;4785404;29;20069;-88
2022/11/19 07:13:57;;;;;;;5.28;3.00;;;-1.10;99.90;;;;;;4789840;29;20084;-88
2022/11/19 07:16:40;;;;;;;5.07;3.30;;;-1.10;99.90;;;;;;4781844;29;20046;-88
2022/11/19 07:19:07;;;;;;;4.65;3.28;;;-1.00;99.90;;;;;;4788003;29;20069;-89
2022/11/19 07:21:34;;;;;;;4.60;3.20;;;1.30;99.90;;;;;;4785253;29;20050;-88
2022/11/19 07:24:06;;;;;;;5.63;3.38;;;-0.80;99.90;;;;;;4784406;29;20517;-89
2022/11/19 07:26:36;;;;;;;5.22;3.40;;;-1.10;99.90;;;;;;4774284;29;20635;-88
2022/11/19 07:29:06;;;;;;;5.18;3.50;;;-1.10;99.90;;;;;;4790590;29;20195;-88
2022/11/19 07:31:32;;;;;;;4.57;3.30;;;-1.20;99.90;;;;;;4805356;29;20163;-88
2022/11/19 07:34:00;;;;;;;5.05;3.35;;;-1.10;99.90;;;;;;4781676;29;20061;-89
2022/11/19 07:36:28;;;;;;;6.95;3.55;;;-1.00;99.90;;;;;;4787751;29;20046;-88
2022/11/19 07:38:57;;;;;;;6.22;3.60;;;;;;;;;;4787062;29;20535;-89
2022/11/19 07:44:07;;;;;;;5.90;3.45;;;-0.80;99.90;;;;;;4802234;29;20087;-90
2022/11/19 07:46:34;;;;;;;5.15;3.65;;;-1.00;99.90;;;;;;4771416;29;20050;-90
2022/11/19 07:49:00;;;;;;;5.05;3.10;;;;;;;;;;4786904;29;20539;-88
2022/11/19 07:51:26;;;;;;;4.70;3.55;;;-1.20;99.90;;;;;;4785529;29;20072;-89
2022/11/19 07:53:52;;;;;;;6.22;3.95;;;;;;;;;;4801665;29;20054;-88
2022/11/19 07:56:19;;;;;;;5.70;3.25;;;-1.20;99.90;;;;;;4800701;29;20107;-89
2022/11/19 07:58:48;;;;;;;6.55;3.65;;;;;;;;;;4781003;29;20058;-88
2022/11/19 08:01:21;;;;;;;6.20;3.67;;;-1.20;99.90;;;;;;4785249;29;20689;-88
2022/11/19 08:03:49;;;;;;;7.45;3.10;;;0.30;99.90;;;;;;4780764;29;20533;-89
2022/11/19 08:06:18;;;;;;;5.07;3.00;;;1.00;99.90;;;;;;4815826;29;20065;-89
2022/11/19 08:08:45;;;;;;;5.65;3.17;;;-0.30;99.90;;;;;;4809222;29;20489;-88
2022/11/19 08:11:13;;;;;;;5.03;3.65;;;-1.20;99.90;;;;;;4807288;29;20073;-89
2022/11/19 08:13:39;;;;;;;5.85;3.40;;;-1.10;99.90;;;;;;4805084;29;20051;-90
2022/11/19 08:16:10;;;;;;;5.80;3.50;;;-1.10;99.90;;;;;;4786962;29;20424;-90
2022/11/19 08:18:38;;;;;;;5.65;3.30;;;-1.20;99.90;;;;;;4785991;29;20097;-89
2022/11/19 08:21:07;;;;;;;5.32;3.25;;;-1.10;99.90;;;;;;4784596;29;20054;-87
2022/11/19 08:23:41;;;;;;;5.63;3.42;;;-1.10;99.90;;;;;;4781492;29;20056;-89
2022/11/19 08:26:12;;;;;;;6.03;3.35;;;0.10;99.90;;;;;;4788498;29;20089;-88
2022/11/19 08:28:38;;;;;;;6.10;3.47;;;-0.80;99.90;;;;;;4787206;29;20050;-89
2022/11/19 08:31:08;;;;;;;6.88;3.92;;;-0.80;99.90;;;;;;4785655;29;20050;-88
2022/11/19 08:33:34;;;;;;;4.75;3.17;;;2.60;99.90;;;;;;4770492;29;20056;-88
2022/11/19 08:36:00;;;;;;;4.82;3.60;;;2.00;99.90;;;;;;4801489;29;20115;-89
2022/11/19 08:38:28;;;;;;;5.43;3.30;;;3.40;99.90;;;;;;4784542;29;20234;-89
2022/11/19 08:42:58;;;;;;;5.03;3.00;;;6.10;99.90;;;;;;4800817;29;20519;-89
2022/11/19 08:43:41;;;;;;;5.15;3.28;;;4.40;99.90;;;;;;4801667;29;20065;-88
2022/11/19 08:46:07;;;;;;;4.10;3.00;;;;;;;;;;4785810;29;20054;-88
2022/11/19 08:48:34;;;;;;;5.97;3.47;;;2.70;99.90;;;;;;4800490;29;20054;-88
2022/11/19 08:51:05;;;;;;;5.10;3.22;;;2.10;99.90;;;;;;4772504;29;20050;-89
2022/11/19 08:53:34;;;;;;;5.00;3.20;;;1.90;99.90;;;;;;4819183;29;20050;-88
2022/11/19 08:56:00;;;;;;;5.47;3.40;;;;;;;;;;4788407;29;20058;-89
2022/11/19 08:58:29;;;;;;;5.45;3.22;;;;;;;;;;4803070;29;20057;-88
2022/11/19 09:00:55;;;;;;;6.32;3.42;;;1.40;99.90;;;;;;4786108;29;20078;-88
2022/11/19 09:03:21;;;;;;;4.65;3.15;;;;;;;;;;4801407;29;20468;-89
2022/11/19 09:05:47;;;;;;;5.15;3.15;;;1.40;99.90;;;;;;4801302;29;20070;-88
2022/11/19 09:08:16;;;;;;;5.50;3.53;;;1.80;99.90;;;;;;4776505;29;20054;-88
2022/11/19 09:10:42;;;;;;;5.82;3.20;;;2.30;99.90;;;;;;4768030;29;20051;-89
2022/11/19 09:13:08;;;;;;;4.68;3.30;;;-0.20;99.90;;;;;;4773564;29;20058;-88
2022/11/19 09:15:37;;;;;;;5.53;3.47;;;2.30;99.90;;;;;;4801958;29;20054;-88
2022/11/19 09:18:04;;;;;;;4.65;3.30;;;-1.00;99.90;;;;;;4790768;29;20046;-88
2022/11/19 09:20:33;;;;;;;5.25;3.30;;;0.70;99.90;;;;;;4797543;29;20075;-87
2022/11/19 09:22:59;;;;;;;5.72;3.63;;;;;;;;;;4790525;29;20496;-89
2022/11/19 09:25:25;;;;;;;5.45;3.38;;;0.40;99.90;;;;;;4770659;29;20058;-89
2022/11/19 09:27:54;;;;;;;6.30;3.50;;;2.40;99.90;;;;;;4786209;29;20073;-88
2022/11/19 09:30:20;;;;;;;5.25;3.42;;;0.80;99.90;;;;;;4784597;29;20050;-88
2022/11/19 09:32:46;;;;;;;5.43;3.60;;;2.90;99.90;;;;;;4799685;29;20050;-88
2022/11/19 09:35:14;;;;;;;4.95;3.30;;;3.00;99.90;;;;;;4800072;29;20051;-89
2022/11/19 09:37:40;;;;;;;6.10;3.90;;;0.60;99.90;;;;;;4798307;29;20058;-89
2022/11/19 09:40:08;;;;;;;5.18;3.75;;;0.70;99.90;;;;;;4788433;29;20056;-89
2022/11/19 09:43:14;;;;;;;6.75;4.45;;;1.10;99.90;;;;;;4796200;29;20143;-89
2022/11/19 09:45:53;;;;;;;5.32;3.72;;;1.50;99.90;;;;;;4783037;29;20092;-90
2022/11/19 09:48:32;;;;;;;6.25;3.85;;;2.80;99.90;;;;;;4797823;29;20050;-88
2022/11/19 09:51:19;;;;;;;6.28;4.05;;;2.80;99.90;;;;;;4783338;29;20073;-89
2022/11/19 09:54:03;;;;;;;5.18;3.65;;;3.10;99.90;;;;;;4800592;29;20046;-88
2022/11/19 09:56:37;;;;;;;6.30;3.75;;;3.10;99.90;;;;;;4797431;29;20476;-88
2022/11/19 09:59:26;;;;;;;5.60;4.00;;;3.40;99.90;;;;;;4778900;29;20073;-89
2022/11/19 10:01:52;;;;;;;5.38;3.53;;;3.40;99.90;;;;;;4799859;29;20060;-89
2022/11/19 10:04:24;;;;;;;6.32;3.90;;;3.50;99.90;;;;;;4796115;29;20055;-88
2022/11/19 10:07:46;;;;;;;7.10;3.30;;;3.20;99.90;;;;;;4799783;29;20062;-89
2022/11/19 10:10:21;;;;;;;6.43;3.50;;;2.70;99.90;;;;;;4749217;29;20132;-87
2022/11/19 10:13:31;;;;;;;7.43;3.85;;;3.40;99.90;;;;;;4753128;29;20087;-88
2022/11/19 10:16:16;;;;;;;5.22;3.20;;;3.60;99.90;;;;;;4779721;29;20092;-89
2022/11/19 10:18:51;;;;;;;5.18;3.40;;;3.40;99.90;;;;;;4786190;29;20058;-88
2022/11/19 10:21:25;;;;;;;6.25;3.45;;;3.20;99.90;;;;;;4799587;29;20082;-89
2022/11/19 10:24:07;;;;;;;7.65;3.60;;;3.00;99.90;;;;;;4802410;29;20062;-88
2022/11/19 10:26:37;;;;;;;5.28;3.80;;;3.00;99.90;;;;;;4790171;29;20141;-89
2022/11/19 10:29:15;;;;;;;5.32;3.40;;;5.10;99.90;;;;;;4781208;29;20069;-89
2022/11/19 10:31:47;;;;;;;5.47;3.45;;;3.40;99.90;;;;;;4782211;29;20050;-89
2022/11/19 10:34:29;;;;;;;5.20;3.65;;;5.40;99.90;;;;;;4781947;29;20062;-89
2022/11/19 10:37:12;;;;;;;5.88;3.65;;;3.50;99.90;;;;;;4779643;29;20069;-89
2022/11/19 10:40:07;;;;;;;5.53;3.67;;;4.40;99.90;;;;;;4783532;29;20065;-89
2022/11/19 10:42:37;;;;;;;4.93;3.78;;;4.80;99.90;;;;;;4793687;29;20465;-87
2022/11/19 10:45:18;;;;;;;5.20;3.58;;;4.60;99.90;;;;;;4809078;29;20361;-89
2022/11/19 10:47:55;;;;;;;5.93;3.85;;;4.20;99.90;;;;;;4798178;29;20612;-87
2022/11/19 10:50:23;;;;;;;6.13;3.75;;;2.40;99.90;;;;;;4796856;29;20062;-87
2022/11/19 10:52:59;;;;;;;4.90;3.75;;;3.40;99.90;;;;;;4796873;29;20398;-86
2022/11/19 10:55:45;;;;;;;5.53;3.92;;;4.10;99.90;;;;;;4781392;29;20050;-87
2022/11/19 10:58:49;;;;;;;6.35;4.10;;;3.20;99.90;;;;;;4784320;29;20058;-86
2022/11/19 11:01:32;;;;;;;4.80;3.35;;;2.50;99.90;;;;;;4791191;29;20110;-87
2022/11/19 11:04:25;;;;;;;5.80;3.75;;;2.50;99.90;;;;;;4791622;29;20053;-85
2022/11/19 11:06:55;;;;;;;4.70;3.28;;;2.20;99.90;;;;;;4800607;29;20583;-86
2022/11/19 11:09:31;;;;;;;6.65;3.58;;;2.20;99.90;;;;;;4805302;29;20080;-87
2022/11/19 11:15:16;;;;;;;4.85;3.50;;;2.00;99.90;;;;;;4794894;29;20055;-86
2022/11/19 11:17:45;;;;;;;6.10;3.05;;;1.90;99.90;;;;;;4804034;29;20271;-88
2022/11/19 11:20:17;;;;;;;4.63;3.10;;;2.20;99.90;;;;;;4801384;29;20133;-88
2022/11/19 11:22:49;;;;;;;5.43;3.33;;;2.20;99.90;;;;;;4801794;29;20050;-87
2022/11/19 11:25:26;;;;;;;4.60;3.20;;;2.40;99.90;;;;;;4817456;29;20062;-88
2022/11/19 11:28:12;;;;;;;4.40;3.10;;;1.80;99.90;;;;;;4774285;29;20054;-86
2022/11/19 11:30:51;;;;;;;5.18;3.25;;;1.70;99.90;;;;;;4800770;29;20050;-88
2022/11/19 11:33:25;;;;;;;5.57;3.45;;;1.80;99.90;;;;;;4780846;29;20548;-87
2022/11/19 11:35:58;;;;;;;5.97;3.55;;;3.70;99.90;;;;;;4798834;29;20147;-86
2022/11/19 11:38:26;;;;;;;5.60;3.97;;;1.70;99.90;;;;;;4803114;29;20086;-86
2022/11/19 11:41:06;;;;;;;5.85;3.22;;;1.60;99.90;;;;;;4803830;29;20564;-87
2022/11/19 11:43:37;;;;;;;5.63;3.40;;;1.90;99.90;;;;;;4788392;29;20112;-87
2022/11/19 11:46:13;;;;;;;5.05;3.45;;;3.20;99.90;;;;;;4823499;29;20054;-85
2022/11/19 11:48:47;;;;;;;5.30;3.40;;;1.80;99.90;;;;;;4790380;29;20069;-87
2022/11/19 11:51:31;;;;;;;6.30;3.70;;;3.10;99.90;;;;;;4774821;29;20050;-86
2022/11/19 11:54:06;;;;;;;5.15;3.40;;;1.80;99.90;;;;;;4795272;29;20061;-87
2022/11/19 11:56:32;;;;;;;4.15;3.05;;;1.80;99.90;;;;;;4794781;29;20057;-87
2022/11/19 11:59:15;;;;;;;5.65;3.20;;;2.00;99.90;;;;;;4774426;29;20062;-87
2022/11/19 12:01:51;;;;;;;4.57;3.25;;;1.80;99.90;;;;;;4800136;29;20065;-88
2022/11/19 12:04:17;;;;;;;4.38;2.80;;;1.80;99.90;;;;;;4793041;29;20058;-88
2022/11/19 12:07:06;;;;;;;7.30;3.47;;;1.50;99.90;;;;;;4806509;29;20455;-88
2022/11/19 12:10:02;;;;;;;4.55;3.17;;;1.90;99.90;;;;;;4780008;29;20137;-89
2022/11/19 12:12:42;;;;;;;4.60;3.17;;;3.30;99.90;;;;;;4775428;29;20145;-88
2022/11/19 12:15:08;;;;;;;5.15;2.95;;;0.30;99.90;;;;;;4799971;29;20050;-88
2022/11/19 12:17:59;;;;;;;5.25;3.03;;;2.30;99.90;;;;;;4786542;29;20102;-88
2022/11/19 12:20:55;;;;;;;4.22;2.65;;;2.20;99.90;;;;;;4801030;29;20058;-87
2022/11/19 12:23:53;;;;;;;5.05;2.95;;;2.30;99.90;;;;;;4801574;29;20061;-88
2022/11/19 12:27:06;;;;;;;4.20;2.50;;;0.90;99.90;;;;;;4803574;29;20549;-89
2022/11/19 12:29:53;;;;;;;4.43;2.72;;;2.30;99.90;;;;;;4801974;29;20053;-88
2022/11/19 12:32:24;;;;;;;3.95;2.60;;;2.10;99.90;;;;;;4786987;29;20076;-87
2022/11/19 12:35:03;;;;;;;3.70;2.67;;;2.20;99.90;;;;;;4803030;29;20054;-87
2022/11/19 12:37:40;;;;;;;4.53;2.58;;;2.10;99.90;;;;;;4802332;29;20057;-88
2022/11/19 12:40:24;;;;;;;4.60;2.67;;;1.10;99.90;;;;;;4785135;29;20106;-88
2022/11/19 12:42:59;;;;;;;4.63;2.80;;;2.20;99.90;;;;;;4803801;29;20054;-87
2022/11/19 12:45:54;;;;;;;4.28;2.80;;;2.40;99.90;;;;;;4801633;29;20050;-88
2022/11/19 12:48:42;;;;;;;4.25;2.60;;;2.20;99.90;;;;;;4799863;29;20076;-88
2022/11/19 12:51:37;;;;;;;4.53;2.60;;;2.50;99.90;;;;;;4786158;29;20058;-89
2022/11/19 12:54:05;;;;;;;5.10;3.17;;;;;;;;;;4802224;29;20062;-87
2022/11/19 12:56:33;;;;;;;4.88;3.10;;;2.30;99.90;;;;;;4789277;29;20505;-86
2022/11/19 12:59:45;;;;;;;4.75;2.92;;;2.30;99.90;;;;;;4802273;29;20050;-89
2022/11/19 13:02:45;;;;;;;5.10;3.00;;;2.30;99.90;;;;;;4802260;29;20054;-89
2022/11/19 13:05:19;;;;;;;6.03;3.20;;;2.30;99.90;;;;;;4803035;29;20077;-88
2022/11/19 13:07:53;;;;;;;4.97;3.03;;;2.40;99.90;;;;;;4785504;29;20054;-85
2022/11/19 13:10:26;;;;;;;4.68;2.97;;;2.30;99.90;;;;;;4787074;29;20135;-88
2022/11/19 13:12:55;;;;;;;4.28;2.63;;;2.30;99.90;;;;;;4803065;29;20066;-86
2022/11/19 13:15:23;;;;;;;4.97;3.50;;;4.20;99.90;;;;;;4786924;29;20050;-87
2022/11/19 13:17:55;;;;;;;4.18;2.80;;;3.40;99.90;;;;;;4802822;29;20062;-88
2022/11/19 13:20:36;;;;;;;3.75;2.45;;;2.40;99.90;;;;;;4784112;29;20050;-87
2022/11/19 13:23:05;;;;;;;3.90;2.65;;;2.60;99.90;;;;;;4803584;29;20062;-86
2022/11/19 13:25:37;;;;;;;4.05;2.63;;;1.50;99.90;;;;;;4803989;29;20532;-88
2022/11/19 13:28:22;;;;;;;4.93;2.80;;;2.40;99.90;;;;;;4799288;29;20074;-88
2022/11/19 13:30:51;;;;;;;3.83;2.78;;;2.30;99.90;;;;;;4786969;29;20062;-88
2022/11/19 13:33:43;;;;;;;5.78;2.78;;;2.60;99.90;;;;;;4808360;29;20091;-89
2022/11/19 13:36:08;;;;;;;4.30;2.85;;;3.10;99.90;;;;;;4794715;29;20154;-87
2022/11/19 13:39:04;;;;;;;5.68;3.00;;;2.60;99.90;;;;;;4789657;29;20706;-88
2022/11/19 13:44:37;;;;;;;4.53;2.72;;;2.40;99.90;;;;;;4784015;29;20055;-86
2022/11/19 13:44:37;;;;;;;3.83;2.58;;;2.30;99.90;;;;;;4797694;29;20093;-86
2022/11/19 13:47:14;;;;;;;5.15;2.90;;;2.30;99.90;;;;;;4768136;29;20086;-88
2022/11/19 13:49:45;;;;;;;5.32;3.17;;;2.30;99.90;;;;;;4814861;29;20063;-87
2022/11/19 13:52:22;;;;;;;3.92;2.70;;;2.80;99.90;;;;;;4778932;29;20059;-86
2022/11/19 13:54:48;;;;;;;4.32;2.88;;;2.40;99.90;;;;;;4796927;29;20054;-88